createdAt,value
2023-03-26T00:01:59.912Z,100927.78
2023-03-26T00:04:26.532Z,100936.25
2023-03-26T00:06:53.481Z,100932.81
2023-03-26T00:09:20.087Z,100937.03
2023-03-26T00:11:46.852Z,100928.03
2023-03-26T00:14:17.564Z,100935.19
2023-03-26T00:16:44.942Z,100921.16
2023-03-26T00:19:11.830Z,100924.88
2023-03-26T00:21:38.425Z,100926.72
2023-03-26T00:24:09.502Z,100923.28
2023-03-26T00:26:38.708Z,100919.84
2023-03-26T00:29:06.765Z,100919.31
2023-03-26T00:31:33.915Z,100921.97
2023-03-26T00:34:03.509Z,100924.88
2023-03-26T00:36:30.513Z,100919.03
2023-03-26T00:38:57.156Z,100913.75
2023-03-26T00:41:26.370Z,100907.66
2023-03-26T00:43:58.907Z,100903.16
2023-03-26T00:46:29.705Z,100897.34
2023-03-26T00:48:58.870Z,100901.84
2023-03-26T00:51:26.465Z,100896.00
2023-03-26T00:53:53.094Z,100890.97
2023-03-26T00:56:19.970Z,100889.66
2023-03-26T00:58:47.647Z,100879.06
2023-03-26T01:01:17.384Z,100875.91
2023-03-26T01:03:57.146Z,100881.19
2023-03-26T01:06:36.233Z,100883.84
2023-03-26T01:09:24.239Z,100881.44
2023-03-26T01:11:51.026Z,100879.59
2023-03-26T01:14:26.965Z,100880.41
2023-03-26T01:16:55.820Z,100875.91
2023-03-26T01:19:40.798Z,100875.09
2023-03-26T01:22:11.244Z,100859.50
2023-03-26T01:24:39.503Z,100854.19
2023-03-26T01:27:12.189Z,100847.28
2023-03-26T01:29:55.718Z,100845.72
2023-03-26T01:32:31.686Z,100837.78
2023-03-26T01:35:25.015Z,100839.34
2023-03-26T01:38:17.187Z,100837.78
2023-03-26T01:41:04.688Z,100835.13
2023-03-26T01:43:39.579Z,100836.19
2023-03-26T01:46:10.212Z,100825.88
2023-03-26T01:48:42.934Z,100819.78
2023-03-26T01:51:12.514Z,100813.69
2023-03-26T01:53:44.908Z,100816.88
2023-03-26T01:56:31.409Z,100808.94
2023-03-26T01:59:23.157Z,100809.44
2023-03-26T02:02:14.185Z,100803.38
2023-03-26T02:05:04.976Z,100795.44
2023-03-26T02:07:41.089Z,100797.28
2023-03-26T02:10:14.844Z,100788.81
2023-03-26T02:12:43.779Z,100785.09
2023-03-26T02:15:12.059Z,100781.69
2023-03-26T02:17:40.436Z,100780.06
2023-03-26T02:20:11.039Z,100776.91
2023-03-26T02:22:41.040Z,100774.53
2023-03-26T02:25:10.601Z,100775.84
2023-03-26T02:27:38.067Z,100778.50
2023-03-26T02:30:09.487Z,100762.13
2023-03-26T02:32:36.661Z,100765.03
2023-03-26T02:35:06.021Z,100768.72
2023-03-26T02:37:35.877Z,100770.84
2023-03-26T02:40:04.736Z,100761.84
2023-03-26T02:42:31.301Z,100758.41
2023-03-26T02:44:57.803Z,100746.75
2023-03-26T02:47:24.683Z,100751.00
2023-03-26T02:49:51.361Z,100752.84
2023-03-26T02:52:19.049Z,100749.66
2023-03-26T02:54:45.771Z,100745.94
2023-03-26T02:57:12.457Z,100748.59
2023-03-26T02:59:39.060Z,100743.03
2023-03-26T03:02:05.658Z,100747.56
2023-03-26T03:04:32.293Z,100741.19
2023-03-26T03:07:00.003Z,100740.13
2023-03-26T03:09:26.676Z,100739.06
2023-03-26T03:11:53.305Z,100734.84
2023-03-26T03:14:20.358Z,100737.72
2023-03-26T03:16:47.007Z,100731.66
2023-03-26T03:19:13.743Z,100732.16
2023-03-26T03:21:42.191Z,100731.13
2023-03-26T03:24:10.108Z,100725.53
2023-03-26T03:26:37.708Z,100722.91
2023-03-26T03:29:04.387Z,100720.00
2023-03-26T03:31:31.041Z,100718.13
2023-03-26T03:33:57.919Z,100718.38
2023-03-26T03:36:28.108Z,100713.09
2023-03-26T03:38:55.165Z,100712.84
2023-03-26T03:41:21.841Z,100714.94
2023-03-26T03:43:48.893Z,100713.34
2023-03-26T03:46:15.447Z,100713.09
2023-03-26T03:48:48.205Z,100710.44
2023-03-26T03:51:15.187Z,100708.59
2023-03-26T03:53:41.769Z,100711.75
2023-03-26T03:56:10.542Z,100722.09
2023-03-26T03:58:37.667Z,100711.19
2023-03-26T04:01:04.737Z,100705.13
2023-03-26T04:03:34.049Z,100705.91
2023-03-26T04:06:01.660Z,100696.91
2023-03-26T04:08:28.276Z,100694.78
2023-03-26T04:10:54.928Z,100699.00
2023-03-26T04:13:22.350Z,100692.66
2023-03-26T04:15:48.909Z,100684.44
2023-03-26T04:18:15.556Z,100678.88
2023-03-26T04:20:47.130Z,100682.31
2023-03-26T04:23:14.931Z,100674.09
2023-03-26T04:25:46.673Z,100675.97
2023-03-26T04:28:26.512Z,100675.69
2023-03-26T04:30:55.285Z,100670.41
2023-03-26T04:33:21.949Z,100664.28
2023-03-26T04:35:48.722Z,100661.63
2023-03-26T04:38:16.807Z,100659.00
2023-03-26T04:40:47.374Z,100651.03
2023-03-26T04:43:16.556Z,100643.63
2023-03-26T04:45:43.780Z,100646.28
2023-03-26T04:48:14.798Z,100647.88
2023-03-26T04:50:45.673Z,100633.56
2023-03-26T04:53:15.621Z,100631.19
2023-03-26T04:55:49.214Z,100636.19
2023-03-26T04:58:16.433Z,100632.75
2023-03-26T05:00:43.466Z,100620.31
2023-03-26T05:03:11.840Z,100621.91
2023-03-26T05:05:39.924Z,100618.47
2023-03-26T05:08:06.684Z,100604.41
2023-03-26T05:10:33.420Z,100604.41
2023-03-26T05:13:00.126Z,100605.22
2023-03-26T05:15:26.931Z,100603.38
2023-03-26T05:17:55.760Z,100609.44
2023-03-26T05:20:26.441Z,100606.03
2023-03-26T05:22:53.084Z,100597.28
2023-03-26T05:25:20.203Z,100599.94
2023-03-26T05:27:47.410Z,100587.47
2023-03-26T05:30:17.883Z,100589.88
2023-03-26T05:32:44.679Z,100585.63
2023-03-26T05:35:12.595Z,100580.06
2023-03-26T05:37:39.246Z,100589.56
2023-03-26T05:40:11.800Z,100578.97
2023-03-26T05:42:39.347Z,100577.16
2023-03-26T05:45:08.370Z,100577.16
2023-03-26T05:47:35.061Z,100572.63
2023-03-26T05:50:01.903Z,100569.19
2023-03-26T05:52:29.194Z,100571.03
2023-03-26T05:54:56.154Z,100569.97
2023-03-26T05:57:24.213Z,100569.97
2023-03-26T05:59:50.958Z,100565.47
2023-03-26T06:02:17.545Z,100568.13
2023-03-26T06:04:45.816Z,100556.75
2023-03-26T06:07:12.826Z,100558.59
2023-03-26T06:09:40.908Z,100548.78
2023-03-26T06:12:09.490Z,100545.38
2023-03-26T06:14:36.561Z,100540.84
2023-03-26T06:17:03.734Z,100547.44
2023-03-26T06:19:30.324Z,100542.16
2023-03-26T06:21:57.040Z,100535.00
2023-03-26T06:24:23.621Z,100528.63
2023-03-26T06:26:50.507Z,100529.16
2023-03-26T06:29:17.128Z,100526.50
2023-03-26T06:31:43.933Z,100522.00
2023-03-26T06:34:10.851Z,100528.88
2023-03-26T06:36:37.482Z,100522.75
2023-03-26T06:39:07.583Z,100523.47
2023-03-26T06:41:35.697Z,100522.09
2023-03-26T06:44:02.388Z,100521.78
2023-03-26T06:46:29.305Z,100521.72
2023-03-26T06:48:56.127Z,100520.59
2023-03-26T06:51:22.709Z,100521.28
2023-03-26T06:53:49.275Z,100517.25
2023-03-26T06:56:16.053Z,100506.81
2023-03-26T06:58:42.567Z,100512.28
2023-03-26T07:01:09.251Z,100510.09
2023-03-26T07:03:36.023Z,100520.88
2023-03-26T07:06:02.604Z,100516.81
2023-03-26T07:08:31.096Z,100515.94
2023-03-26T07:10:57.897Z,100514.03
2023-03-26T07:13:24.795Z,100513.94
2023-03-26T07:15:51.478Z,100519.22
2023-03-26T07:18:18.476Z,100515.69
2023-03-26T07:20:46.284Z,100505.31
2023-03-26T07:23:15.639Z,100506.81
2023-03-26T07:25:47.886Z,100503.81
2023-03-26T07:28:34.143Z,100510.31
2023-03-26T07:31:42.522Z,100512.69
2023-03-26T07:34:40.818Z,100506.50
2023-03-26T07:37:36.981Z,100501.94
2023-03-26T07:40:28.181Z,100501.38
2023-03-26T07:43:07.501Z,100503.44
2023-03-26T07:45:40.872Z,100495.97
2023-03-26T07:48:25.544Z,100502.00
2023-03-26T07:53:46.970Z,100496.03
2023-03-26T07:56:21.508Z,100493.56
2023-03-26T07:59:06.635Z,100490.34
2023-03-26T08:02:14.209Z,100498.22
2023-03-26T08:05:03.785Z,100492.34
2023-03-26T08:07:55.421Z,100492.34
2023-03-26T08:10:51.004Z,100488.03
2023-03-26T08:13:35.697Z,100496.00
2023-03-26T08:16:08.994Z,100487.72
2023-03-26T08:18:54.617Z,100483.88
2023-03-26T08:21:28.977Z,100488.13
2023-03-26T08:24:18.181Z,100490.50
2023-03-26T08:27:03.836Z,100485.69
2023-03-26T08:29:58.211Z,100486.47
2023-03-26T08:32:25.892Z,100484.31
2023-03-26T08:34:52.802Z,100486.97
2023-03-26T08:37:19.408Z,100484.06
2023-03-26T08:39:46.107Z,100485.63
2023-03-26T08:42:44.597Z,100482.19
2023-03-26T08:49:03.710Z,100484.06
2023-03-26T08:52:14.047Z,100493.06
2023-03-26T08:55:06.372Z,100478.22
2023-03-26T08:57:57.013Z,100488.13
2023-03-26T09:00:38.550Z,100488.41
2023-03-26T09:03:42.021Z,100490.09
2023-03-26T09:06:36.361Z,100488.22
2023-03-26T09:09:07.905Z,100482.09
2023-03-26T09:12:26.691Z,100500.81
2023-03-26T09:15:14.522Z,100495.06
2023-03-26T09:18:05.840Z,100494.38
2023-03-26T09:20:48.491Z,100485.91
2023-03-26T09:23:32.886Z,100492.88
2023-03-26T09:26:33.914Z,100494.53
2023-03-26T09:29:12.393Z,100487.63
2023-03-26T09:32:03.247Z,100492.16
2023-03-26T09:35:08.373Z,100489.50
2023-03-26T09:37:58.849Z,100497.75
2023-03-26T09:40:38.131Z,100492.16
2023-03-26T09:43:49.028Z,100494.59
2023-03-26T09:46:52.390Z,100497.25
2023-03-26T09:49:47.699Z,100499.34
2023-03-26T09:52:47.633Z,100504.06
2023-03-26T09:56:02.660Z,100504.78
2023-03-26T09:59:17.762Z,100514.81
2023-03-26T10:05:13.749Z,100513.63
2023-03-26T10:08:12.656Z,100517.84
2023-03-26T10:10:53.607Z,100517.44
2023-03-26T10:13:33.904Z,100523.25
2023-03-26T10:16:27.356Z,100515.28
2023-03-26T10:19:11.092Z,100523.81
2023-03-26T10:22:09.932Z,100521.38
2023-03-26T10:25:16.045Z,100521.59
2023-03-26T10:28:00.692Z,100523.44
2023-03-26T10:31:25.463Z,100519.72
2023-03-26T10:34:28.618Z,100532.22
2023-03-26T10:37:08.643Z,100534.88
2023-03-26T10:40:06.160Z,100536.22
2023-03-26T10:42:54.448Z,100537.81
2023-03-26T10:45:51.377Z,100534.94
2023-03-26T10:48:35.960Z,100532.00
2023-03-26T10:51:08.544Z,100535.16
2023-03-26T10:53:47.262Z,100539.03
2023-03-26T10:56:38.382Z,100538.03
2023-03-26T10:59:12.579Z,100548.22
2023-03-26T11:02:09.522Z,100552.78
2023-03-26T11:05:24.374Z,100556.09
2023-03-26T11:08:00.375Z,100554.28
2023-03-26T11:10:56.618Z,100562.56
2023-03-26T11:13:46.259Z,100562.84
2023-03-26T11:16:32.397Z,100562.38
2023-03-26T11:19:12.067Z,100560.31
2023-03-26T11:21:45.362Z,100561.66
2023-03-26T11:24:49.323Z,100570.75
2023-03-26T11:27:39.996Z,100565.47
2023-03-26T11:30:31.481Z,100571.16
2023-03-26T11:33:03.502Z,100577.78
2023-03-26T11:35:40.420Z,100579.19
2023-03-26T11:38:22.257Z,100574.47
2023-03-26T11:40:53.333Z,100583.44
2023-03-26T11:43:26.286Z,100588.75
2023-03-26T11:45:53.870Z,100585.09
2023-03-26T11:48:32.385Z,100587.66
2023-03-26T11:51:04.546Z,100587.47
2023-03-26T11:53:35.073Z,100587.66
2023-03-26T11:56:14.970Z,100594.25
2023-03-26T11:58:54.662Z,100581.06
2023-03-26T12:04:40.463Z,100598.00
2023-03-26T12:07:23.918Z,100600.44
2023-03-26T12:09:57.105Z,100593.31
2023-03-26T12:15:50.555Z,100595.69
2023-03-26T12:18:25.334Z,100603.50
2023-03-26T12:24:08.556Z,100600.38
2023-03-26T12:26:39.611Z,100601.13
2023-03-26T12:29:13.374Z,100611.63
2023-03-26T12:32:07.323Z,100614.00
2023-03-26T12:34:39.642Z,100608.00
2023-03-26T12:37:08.013Z,100613.81
2023-03-26T12:40:08.111Z,100618.47
2023-03-26T12:44:47.301Z,100621.03
2023-03-26T12:45:29.167Z,100614.53
2023-03-26T12:48:03.796Z,100625.47
2023-03-26T12:50:43.206Z,100631.59
2023-03-26T12:53:47.861Z,100628.38
2023-03-26T12:56:36.446Z,100632.25
2023-03-26T12:59:16.077Z,100640.75
2023-03-26T13:01:58.116Z,100643.31
2023-03-26T13:05:05.118Z,100645.41
2023-03-26T13:08:15.390Z,100633.34
2023-03-26T13:11:05.259Z,100636.72
2023-03-26T13:14:07.414Z,100647.25
2023-03-26T13:17:04.073Z,100648.63
2023-03-26T13:19:42.915Z,100648.50
2023-03-26T13:22:27.685Z,100643.84
2023-03-26T13:25:22.312Z,100661.28
2023-03-26T13:28:19.758Z,100657.34
2023-03-26T13:31:06.205Z,100663.28
2023-03-26T13:33:45.914Z,100659.72
2023-03-26T13:36:41.881Z,100677.03
2023-03-26T13:39:36.281Z,100664.16
2023-03-26T13:42:15.182Z,100672.66
2023-03-26T13:45:14.597Z,100663.88
2023-03-26T13:47:50.522Z,100675.06
2023-03-26T13:50:39.370Z,100679.75
2023-03-26T13:53:14.289Z,100675.22
2023-03-26T13:55:45.873Z,100676.97
2023-03-26T13:58:42.107Z,100677.63
2023-03-26T14:04:33.420Z,100680.50
2023-03-26T14:07:15.917Z,100696.72
2023-03-26T14:09:56.972Z,100696.09
2023-03-26T14:12:38.944Z,100693.06
2023-03-26T14:15:16.585Z,100703.56
2023-03-26T14:17:56.853Z,100709.81
2023-03-26T14:20:57.034Z,100705.69
2023-03-26T14:24:02.021Z,100711.59
2023-03-26T14:26:58.530Z,100719.09
2023-03-26T14:29:56.856Z,100718.47
2023-03-26T14:32:44.037Z,100725.78
2023-03-26T14:35:58.517Z,100726.38
2023-03-26T14:38:54.435Z,100733.69
2023-03-26T14:41:27.863Z,100738.00
2023-03-26T14:44:47.576Z,100747.25
2023-03-26T14:47:21.546Z,100746.22
2023-03-26T14:50:06.813Z,100754.41
2023-03-26T14:53:00.871Z,100762.22
2023-03-26T14:55:30.532Z,100771.53
2023-03-26T14:58:13.930Z,100764.09
2023-03-26T15:01:04.360Z,100775.06
2023-03-26T15:04:22.147Z,100787.66
2023-03-26T15:07:15.570Z,100792.03
2023-03-26T15:10:18.616Z,100791.50
2023-03-26T15:13:23.202Z,100804.47
2023-03-26T15:16:08.496Z,100799.97
2023-03-26T15:18:53.579Z,100806.94
2023-03-26T15:22:00.185Z,100812.06
2023-03-26T15:24:27.079Z,100809.63
2023-03-26T15:27:18.883Z,100811.81
2023-03-26T15:30:13.942Z,100814.84
2023-03-26T15:33:00.506Z,100821.34
2023-03-26T15:35:47.106Z,100819.56
2023-03-26T15:39:04.370Z,100832.16
2023-03-26T15:42:02.317Z,100828.69
2023-03-26T15:44:54.162Z,100838.81
2023-03-26T15:47:48.748Z,100847.63
2023-03-26T15:50:36.465Z,100862.19
2023-03-26T15:53:42.146Z,100860.47
2023-03-26T15:56:20.389Z,100867.38
2023-03-26T15:58:54.057Z,100880.41
2023-03-26T16:01:46.546Z,100880.13
2023-03-26T16:04:26.636Z,100891.25
2023-03-26T16:07:03.642Z,100902.97
2023-03-26T16:09:33.170Z,100914.38
2023-03-26T16:12:17.651Z,100900.69
2023-03-26T16:15:03.776Z,100913.19
2023-03-26T16:18:10.328Z,100914.44
2023-03-26T16:20:50.683Z,100921.34
2023-03-26T16:24:12.111Z,100924.47
2023-03-26T16:26:53.056Z,100921.25
2023-03-26T16:29:22.545Z,100929.50
2023-03-26T16:32:14.952Z,100936.28
2023-03-26T16:34:50.946Z,100938.19
2023-03-26T16:37:52.676Z,100945.66
2023-03-26T16:40:39.151Z,100954.91
2023-03-26T16:43:32.322Z,100969.50
2023-03-26T16:46:45.256Z,100977.75
2023-03-26T16:49:45.688Z,100974.84
2023-03-26T16:52:50.670Z,100989.22
2023-03-26T16:55:28.611Z,100984.94
2023-03-26T16:58:03.742Z,101010.13
2023-03-26T17:00:48.214Z,101014.91
2023-03-26T17:03:31.873Z,101008.28
2023-03-26T17:06:06.097Z,101025.00
2023-03-26T17:08:42.226Z,101031.59
2023-03-26T17:11:36.215Z,101029.72
2023-03-26T17:14:27.374Z,101032.91
2023-03-26T17:17:03.008Z,101041.13
2023-03-26T17:20:11.771Z,101041.13
2023-03-26T17:22:46.196Z,101053.59
2023-03-26T17:25:42.455Z,101061.53
2023-03-26T17:28:37.135Z,101075.56
2023-03-26T17:31:34.281Z,101075.31
2023-03-26T17:34:38.033Z,101081.41
2023-03-26T17:37:31.030Z,101089.88
2023-03-26T17:40:01.421Z,101106.81
2023-03-26T17:42:33.483Z,101102.84
2023-03-26T17:45:02.710Z,101117.66
2023-03-26T17:47:38.605Z,101111.84
2023-03-26T17:50:08.282Z,101121.06
2023-03-26T17:52:48.208Z,101113.91
2023-03-26T17:55:20.020Z,101129.84
2023-03-26T17:57:53.316Z,101127.44
2023-03-26T18:00:23.899Z,101137.00
2023-03-26T18:02:56.326Z,101141.22
2023-03-26T18:05:27.084Z,101144.41
2023-03-26T18:08:12.286Z,101156.56
2023-03-26T18:11:05.290Z,101162.91
2023-03-26T18:13:45.755Z,101163.16
2023-03-26T18:16:17.430Z,101170.75
2023-03-26T18:18:54.000Z,101169.44
2023-03-26T18:21:28.370Z,101172.56
2023-03-26T18:23:59.857Z,101179.19
2023-03-26T18:26:36.959Z,101187.66
2023-03-26T18:29:27.246Z,101196.34
2023-03-26T18:31:55.547Z,101201.88
2023-03-26T18:34:22.584Z,101199.50
2023-03-26T18:37:01.206Z,101213.53
2023-03-26T18:39:28.121Z,101213.31
2023-03-26T18:41:54.981Z,101229.47
2023-03-26T18:44:22.000Z,101228.38
2023-03-26T18:46:49.002Z,101229.72
2023-03-26T18:49:16.854Z,101252.47
2023-03-26T18:51:56.042Z,101248.78
2023-03-26T18:54:25.172Z,101251.41
2023-03-26T18:56:52.802Z,101259.59
2023-03-26T18:59:35.169Z,101276.19
2023-03-26T19:02:11.538Z,101276.72
2023-03-26T19:04:38.902Z,101278.97
2023-03-26T19:07:10.829Z,101290.13
2023-03-26T19:09:38.990Z,101294.81
2023-03-26T19:12:08.916Z,101287.09
2023-03-26T19:14:53.519Z,101299.50
2023-03-26T19:17:21.281Z,101301.56
2023-03-26T19:19:50.204Z,101300.81
2023-03-26T19:22:17.923Z,101311.63
2023-03-26T19:24:44.580Z,101308.50
2023-03-26T19:27:12.453Z,101312.69
2023-03-26T19:29:40.433Z,101319.88
2023-03-26T19:32:27.738Z,101324.88
2023-03-26T19:34:54.366Z,101333.56
2023-03-26T19:37:25.031Z,101342.69
2023-03-26T19:39:54.187Z,101334.25
2023-03-26T19:42:27.196Z,101341.63
2023-03-26T19:45:17.906Z,101356.66
2023-03-26T19:47:48.418Z,101360.28
2023-03-26T19:50:23.503Z,101361.81
2023-03-26T19:53:16.823Z,101368.97
2023-03-26T19:55:54.238Z,101371.72
2023-03-26T19:58:21.423Z,101381.06
2023-03-26T20:00:48.041Z,101377.81
2023-03-26T20:03:16.812Z,101384.50
2023-03-26T20:05:43.832Z,101380.03
2023-03-26T20:08:14.961Z,101380.50
2023-03-26T20:10:43.159Z,101395.47
2023-03-26T20:13:16.814Z,101400.47
2023-03-26T20:18:43.624Z,101401.63
2023-03-26T20:21:12.456Z,101400.19
2023-03-26T20:23:43.191Z,101413.56
2023-03-26T20:26:15.249Z,101418.53
2023-03-26T20:28:48.213Z,101426.91
2023-03-26T20:31:22.025Z,101420.41
2023-03-26T20:33:53.415Z,101422.72
2023-03-26T20:36:34.342Z,101439.63
2023-03-26T20:39:05.618Z,101432.97
2023-03-26T20:41:32.775Z,101431.28
2023-03-26T20:43:59.348Z,101446.97
2023-03-26T20:46:30.791Z,101447.75
2023-03-26T20:48:58.969Z,101463.03
2023-03-26T20:51:28.191Z,101469.25
2023-03-26T20:53:56.305Z,101471.56
2023-03-26T20:56:23.531Z,101475.47
2023-03-26T20:59:03.535Z,101490.97
2023-03-26T21:01:37.785Z,101490.88
2023-03-26T21:04:04.524Z,101492.16
2023-03-26T21:06:31.140Z,101491.03
2023-03-26T21:08:58.063Z,101493.09
2023-03-26T21:11:46.636Z,101498.25
2023-03-26T21:14:21.160Z,101499.78
2023-03-26T21:16:48.403Z,101506.09
2023-03-26T21:19:15.880Z,101503.13
2023-03-26T21:21:59.202Z,101504.63
2023-03-26T21:24:37.987Z,101517.72
2023-03-26T21:27:26.450Z,101526.06
2023-03-26T21:29:54.550Z,101526.53
2023-03-26T21:32:22.772Z,101521.16
2023-03-26T21:34:58.598Z,101518.66
2023-03-26T21:37:26.622Z,101523.81
2023-03-26T21:39:53.467Z,101533.22
2023-03-26T21:42:20.534Z,101532.88
2023-03-26T21:44:47.694Z,101537.00
2023-03-26T21:47:14.902Z,101541.13
2023-03-26T21:49:41.895Z,101552.09
2023-03-26T21:52:14.624Z,101549.94
2023-03-26T21:54:43.218Z,101553.59
2023-03-26T21:57:30.221Z,101559.34
2023-03-26T22:00:14.323Z,101569.66
2023-03-26T22:02:58.534Z,101569.66
2023-03-26T22:08:40.678Z,101581.00
2023-03-26T22:14:04.992Z,101596.00
2023-03-26T22:16:31.787Z,101591.53
2023-03-26T22:18:58.398Z,101594.97
2023-03-26T22:24:19.822Z,101603.00
2023-03-26T22:26:47.213Z,101612.50
2023-03-26T22:29:14.606Z,101614.91
2023-03-26T22:34:36.383Z,101622.03
2023-03-26T22:37:03.034Z,101621.19
2023-03-26T22:39:29.704Z,101624.88
2023-03-26T22:41:56.438Z,101624.53
2023-03-26T22:44:23.111Z,101629.22
2023-03-26T22:46:51.632Z,101638.16
2023-03-26T22:49:18.946Z,101645.50
2023-03-26T22:51:45.616Z,101638.81
2023-03-26T22:54:12.215Z,101654.06
2023-03-26T22:56:39.297Z,101649.25
2023-03-26T22:59:06.526Z,101651.31
2023-03-26T23:01:33.345Z,101661.25
2023-03-26T23:03:59.876Z,101664.94
2023-03-26T23:06:26.480Z,101662.53
2023-03-26T23:08:54.414Z,101675.69
2023-03-26T23:11:22.366Z,101680.16
2023-03-26T23:13:49.614Z,101681.19
2023-03-26T23:16:17.470Z,101686.22
2023-03-26T23:18:44.696Z,101690.25
2023-03-26T23:21:18.506Z,101690.03
2023-03-26T23:23:45.816Z,101691.88
2023-03-26T23:26:12.838Z,101696.31
2023-03-26T23:28:40.985Z,101698.16
2023-03-26T23:31:09.885Z,101705.25
2023-03-26T23:33:39.183Z,101710.50
2023-03-26T23:36:10.488Z,101706.03
2023-03-26T23:38:44.229Z,101721.06
2023-03-26T23:41:15.291Z,101723.47
2023-03-26T23:43:54.840Z,101721.84
2023-03-26T23:46:24.479Z,101726.53
2023-03-26T23:48:53.262Z,101735.47
2023-03-26T23:51:21.212Z,101739.94
2023-03-26T23:53:49.152Z,101745.44
2023-03-26T23:56:16.593Z,101745.44
2023-03-26T23:58:43.387Z,101750.72
